createdAt,value
2019-04-27T00:00:00.304Z,11.60
2019-04-27T00:02:55.871Z,12.57
2019-04-27T00:05:44.644Z,14.17
2019-04-27T00:08:38.971Z,13.33
2019-04-27T00:11:30.298Z,17.67
2019-04-27T00:13:56.558Z,15.57
2019-04-27T00:16:47.005Z,18.40
2019-04-27T00:19:23.300Z,15.87
2019-04-27T00:22:03.166Z,15.80
2019-04-27T00:24:28.652Z,17.70
2019-04-27T00:26:54.151Z,17.50
2019-04-27T00:29:20.582Z,20.17
2019-04-27T00:31:46.799Z,18.53
2019-04-27T00:34:13.329Z,19.07
2019-04-27T00:36:47.070Z,26.40
2019-04-27T00:39:30.184Z,20.13
2019-04-27T00:41:55.601Z,19.23
2019-04-27T00:44:21.018Z,23.00
2019-04-27T00:46:46.462Z,17.73
2019-04-27T00:49:13.662Z,20.17
2019-04-27T00:51:38.982Z,23.57
2019-04-27T00:54:04.716Z,21.47
2019-04-27T00:56:54.998Z,20.33
2019-04-27T00:59:43.156Z,22.67
2019-04-27T01:02:20.918Z,21.73
2019-04-27T01:04:46.266Z,19.27
2019-04-27T01:07:11.720Z,21.53
2019-04-27T01:09:37.518Z,20.07
2019-04-27T01:12:03.633Z,20.10
2019-04-27T01:14:29.519Z,21.97
2019-04-27T01:16:54.885Z,24.83
2019-04-27T01:19:20.245Z,20.83
2019-04-27T01:21:45.621Z,22.67
2019-04-27T01:24:10.982Z,22.57
2019-04-27T01:26:49.840Z,24.07
2019-04-27T01:29:19.199Z,25.20
2019-04-27T01:31:44.423Z,29.90
2019-04-27T01:34:09.774Z,25.27
2019-04-27T01:36:35.137Z,28.60
2019-04-27T01:39:00.518Z,29.60
2019-04-27T01:41:29.071Z,32.23
2019-04-27T01:43:54.513Z,30.60
2019-04-27T01:46:19.862Z,31.67
2019-04-27T01:48:45.218Z,30.97
2019-04-27T01:51:10.593Z,34.07
2019-04-27T01:53:35.946Z,32.13
2019-04-27T01:56:01.426Z,30.07
2019-04-27T01:58:26.783Z,31.27
2019-04-27T02:01:06.620Z,32.20
2019-04-27T02:03:52.753Z,31.97
2019-04-27T02:06:19.075Z,31.90
2019-04-27T02:08:45.187Z,30.27
2019-04-27T02:11:11.581Z,32.00
2019-04-27T02:13:38.468Z,29.77
2019-04-27T02:16:04.001Z,28.47
2019-04-27T02:18:37.620Z,26.87
2019-04-27T02:20:56.366Z,26.67
2019-04-27T02:23:21.849Z,24.57
2019-04-27T02:25:47.212Z,20.70
2019-04-27T02:28:29.334Z,22.83
2019-04-27T02:31:19.316Z,21.73
2019-04-27T02:33:50.068Z,17.83
2019-04-27T02:36:15.622Z,21.87
2019-04-27T02:38:40.981Z,21.40
2019-04-27T02:41:10.007Z,20.20
2019-04-27T02:43:59.667Z,19.30
2019-04-27T02:46:24.094Z,20.57
2019-04-27T02:48:56.732Z,17.60
2019-04-27T02:51:21.937Z,19.67
2019-04-27T02:53:54.200Z,23.33
2019-04-27T02:56:20.312Z,15.83
2019-04-27T02:58:45.930Z,16.77
2019-04-27T03:01:11.326Z,16.63
2019-04-27T03:03:36.682Z,18.07
2019-04-27T03:06:02.094Z,15.43
2019-04-27T03:08:29.435Z,15.00
2019-04-27T03:10:54.932Z,14.10
2019-04-27T03:13:33.046Z,15.63
2019-04-27T03:16:20.448Z,12.60
2019-04-27T03:19:17.741Z,13.10
2019-04-27T03:21:54.182Z,11.57
2019-04-27T03:24:23.037Z,11.67
2019-04-27T03:26:53.644Z,13.47
2019-04-27T03:29:20.208Z,11.47
2019-04-27T03:31:47.137Z,9.57
2019-04-27T03:34:16.415Z,11.40
2019-04-27T03:36:40.245Z,11.83
2019-04-27T03:39:10.149Z,9.83
2019-04-27T03:41:35.346Z,11.13
2019-04-27T03:44:00.695Z,12.43
2019-04-27T03:46:26.072Z,13.87
2019-04-27T03:48:51.413Z,13.17
2019-04-27T03:51:29.980Z,14.40
2019-04-27T03:54:06.784Z,14.70
2019-04-27T03:56:39.523Z,14.03
2019-04-27T03:59:25.245Z,16.60
2019-04-27T04:01:50.732Z,14.27
2019-04-27T04:04:16.103Z,14.20
2019-04-27T04:06:41.583Z,17.20
2019-04-27T04:09:10.325Z,15.77
2019-04-27T04:11:54.853Z,16.33
2019-04-27T04:14:21.586Z,16.43
2019-04-27T04:16:59.042Z,16.03
2019-04-27T04:19:22.778Z,17.50
2019-04-27T04:21:50.382Z,15.43
2019-04-27T04:24:15.272Z,18.90
2019-04-27T04:26:40.620Z,16.73
2019-04-27T04:29:06.072Z,15.60
2019-04-27T04:31:33.242Z,17.20
2019-04-27T04:33:59.675Z,17.77
2019-04-27T04:36:25.417Z,21.13
2019-04-27T04:38:50.767Z,19.00
2019-04-27T04:41:22.423Z,19.50
2019-04-27T04:44:04.078Z,22.03
2019-04-27T04:47:03.977Z,22.47
2019-04-27T04:49:29.680Z,23.87
2019-04-27T04:51:59.250Z,22.20
2019-04-27T04:54:24.954Z,24.63
2019-04-27T04:56:50.307Z,26.20
2019-04-27T04:59:15.694Z,26.27
2019-04-27T05:01:41.034Z,23.97
2019-04-27T05:04:06.466Z,26.03
2019-04-27T05:06:31.823Z,28.43
2019-04-27T05:08:57.229Z,45.43
2019-04-27T05:11:22.570Z,30.70
2019-04-27T05:13:49.444Z,30.77
2019-04-27T05:16:14.958Z,31.73
2019-04-27T05:18:40.307Z,31.77
2019-04-27T05:21:15.073Z,30.93
2019-04-27T05:23:40.443Z,33.53
2019-04-27T05:26:05.986Z,35.77
2019-04-27T05:28:31.365Z,32.40
2019-04-27T05:30:56.722Z,33.23
2019-04-27T05:33:22.110Z,32.30
2019-04-27T05:35:49.179Z,34.07
2019-04-27T05:38:14.433Z,33.47
2019-04-27T05:40:40.039Z,39.73
2019-04-27T05:43:05.466Z,36.60
2019-04-27T05:46:46.448Z,36.70
2019-04-27T05:49:18.840Z,34.33
2019-04-27T05:51:44.365Z,38.63
2019-04-27T05:54:09.705Z,36.77
2019-04-27T05:56:35.182Z,37.47
2019-04-27T05:59:00.579Z,42.43
2019-04-27T06:01:26.963Z,38.17
2019-04-27T06:03:52.345Z,35.50
2019-04-27T06:06:19.601Z,34.50
2019-04-27T06:08:44.854Z,36.30
2019-04-27T06:11:10.209Z,36.50
2019-04-27T06:13:35.574Z,34.23
2019-04-27T06:16:00.982Z,35.53
2019-04-27T06:18:26.334Z,36.20
2019-04-27T06:20:55.729Z,36.20
2019-04-27T06:23:20.864Z,38.30
2019-04-27T06:25:45.701Z,38.23
2019-04-27T06:28:11.085Z,39.60
2019-04-27T06:30:36.455Z,39.07
2019-04-27T06:33:01.855Z,35.33
2019-04-27T06:35:28.764Z,38.77
2019-04-27T06:37:55.396Z,36.20
2019-04-27T06:40:20.784Z,36.73
2019-04-27T06:42:46.145Z,37.30
2019-04-27T06:45:11.510Z,38.53
2019-04-27T06:47:39.579Z,37.50
2019-04-27T06:50:04.033Z,37.23
2019-04-27T06:52:29.459Z,40.87
2019-04-27T06:54:54.898Z,35.73
2019-04-27T06:57:20.262Z,38.17
2019-04-27T06:59:45.654Z,40.00
2019-04-27T07:02:11.093Z,42.53
2019-04-27T07:04:36.480Z,39.47
2019-04-27T07:07:01.877Z,35.87
2019-04-27T07:09:27.304Z,35.13
2019-04-27T07:11:52.678Z,37.10
2019-04-27T07:14:19.609Z,32.43
2019-04-27T07:16:45.049Z,33.80
2019-04-27T07:19:10.414Z,34.10
2019-04-27T07:21:35.869Z,33.17
2019-04-27T07:24:01.233Z,30.73
2019-04-27T07:26:29.995Z,31.13
2019-04-27T07:28:55.091Z,32.93
2019-04-27T07:31:20.442Z,30.07
2019-04-27T07:33:46.274Z,31.43
2019-04-27T07:36:11.637Z,31.77
2019-04-27T07:38:39.470Z,31.43
2019-04-27T07:41:06.114Z,31.50
2019-04-27T07:43:39.743Z,31.80
2019-04-27T07:46:05.178Z,34.53
2019-04-27T07:48:30.535Z,36.47
2019-04-27T07:50:56.002Z,35.83
2019-04-27T07:53:21.362Z,36.10
2019-04-27T07:55:46.720Z,41.10
2019-04-27T07:58:12.491Z,39.17
2019-04-27T08:00:39.438Z,41.63
2019-04-27T08:03:06.030Z,43.30
2019-04-27T08:05:31.434Z,39.40
2019-04-27T08:07:56.909Z,43.40
2019-04-27T08:10:22.534Z,42.27
2019-04-27T08:12:49.846Z,41.17
2019-04-27T08:15:16.005Z,40.63
2019-04-27T08:17:42.886Z,42.90
2019-04-27T08:20:09.281Z,41.80
2019-04-27T08:22:34.885Z,42.63
2019-04-27T08:25:00.218Z,46.20
2019-04-27T08:27:47.236Z,46.40
2019-04-27T08:30:40.795Z,40.93
2019-04-27T08:33:09.127Z,43.77
2019-04-27T08:35:34.590Z,42.77
2019-04-27T08:37:59.974Z,48.13
2019-04-27T08:40:25.366Z,47.00
2019-04-27T08:42:51.271Z,45.33
2019-04-27T08:45:16.877Z,47.07
2019-04-27T08:47:42.235Z,43.50
2019-04-27T08:50:09.111Z,45.43
2019-04-27T08:52:34.586Z,43.50
2019-04-27T08:54:59.962Z,41.33
2019-04-27T08:57:25.456Z,41.93
2019-04-27T08:59:51.091Z,45.47
2019-04-27T09:02:16.694Z,44.43
2019-04-27T09:04:42.060Z,45.13
2019-04-27T09:07:25.163Z,41.80
2019-04-27T09:09:53.814Z,39.33
2019-04-27T09:12:36.694Z,35.80
2019-04-27T09:15:10.009Z,36.03
2019-04-27T09:17:44.446Z,37.17
2019-04-27T09:20:21.045Z,34.60
2019-04-27T09:22:46.387Z,33.43
2019-04-27T09:25:11.801Z,31.00
2019-04-27T09:27:38.949Z,30.97
2019-04-27T09:30:05.530Z,31.23
2019-04-27T09:32:30.985Z,30.70
2019-04-27T09:34:57.293Z,27.47
2019-04-27T09:37:23.762Z,26.73
2019-04-27T09:39:49.133Z,24.30
2019-04-27T09:42:14.506Z,22.53
2019-04-27T09:44:39.902Z,21.47
2019-04-27T09:47:06.095Z,23.70
2019-04-27T09:49:31.713Z,27.97
2019-04-27T09:51:57.106Z,26.17
2019-04-27T09:54:23.772Z,20.80
2019-04-27T09:56:49.363Z,23.60
2019-04-27T09:59:16.005Z,22.10
2019-04-27T10:01:41.408Z,37.80
2019-04-27T10:04:06.892Z,27.33
2019-04-27T10:06:32.247Z,17.83
2019-04-27T10:08:58.506Z,20.67
2019-04-27T10:11:23.858Z,17.83
2019-04-27T10:13:49.223Z,14.97
2019-04-27T10:16:14.598Z,18.73
2019-04-27T10:18:39.999Z,17.80
2019-04-27T10:21:06.379Z,17.90
2019-04-27T10:23:32.966Z,17.57
2019-04-27T10:25:58.324Z,16.37
2019-04-27T10:28:23.713Z,17.93
2019-04-27T10:30:49.098Z,18.43
2019-04-27T10:33:16.103Z,19.20
2019-04-27T10:35:41.556Z,17.70
2019-04-27T10:38:07.033Z,17.47
2019-04-27T10:40:32.409Z,20.67
2019-04-27T10:42:57.778Z,19.33
2019-04-27T10:45:23.178Z,19.40
2019-04-27T10:47:49.635Z,17.80
2019-04-27T10:50:17.054Z,18.23
2019-04-27T10:52:52.781Z,18.00
2019-04-27T10:55:10.026Z,16.70
2019-04-27T10:57:35.534Z,14.50
2019-04-27T11:00:01.207Z,16.02
2019-04-27T11:02:26.654Z,15.48
2019-04-27T11:05:00.964Z,15.55
2019-04-27T11:07:32.241Z,14.33
2019-04-27T11:09:57.775Z,12.30
2019-04-27T11:12:23.129Z,11.78
2019-04-27T11:14:48.483Z,12.47
2019-04-27T11:17:14.028Z,14.87
2019-04-27T11:19:39.426Z,14.93
2019-04-27T11:22:07.071Z,11.38
2019-04-27T11:24:31.814Z,15.32
2019-04-27T11:26:57.154Z,11.97
2019-04-27T11:29:22.630Z,13.62
2019-04-27T11:31:48.094Z,12.40
2019-04-27T11:34:13.463Z,11.28
2019-04-27T11:36:57.777Z,12.53
2019-04-27T11:39:23.895Z,11.73
2019-04-27T11:41:49.269Z,14.20
2019-04-27T11:44:15.287Z,16.75
2019-04-27T11:46:41.901Z,14.43
2019-04-27T11:49:07.798Z,15.32
2019-04-27T11:51:33.159Z,14.63
2019-04-27T11:53:59.305Z,15.35
2019-04-27T11:56:24.673Z,12.58
2019-04-27T11:58:50.039Z,13.48
2019-04-27T12:01:15.990Z,12.20
2019-04-27T12:03:41.378Z,10.38
2019-04-27T12:06:06.802Z,11.75
2019-04-27T12:08:32.170Z,14.20
2019-04-27T12:10:57.547Z,13.22
2019-04-27T12:13:22.933Z,13.08
2019-04-27T12:15:48.406Z,14.43
2019-04-27T12:18:13.770Z,11.80
2019-04-27T12:20:39.173Z,12.98
2019-04-27T12:23:06.360Z,11.20
2019-04-27T12:25:31.554Z,11.97
2019-04-27T12:28:15.107Z,10.75
2019-04-27T12:31:02.426Z,11.85
2019-04-27T12:33:28.269Z,11.18
2019-04-27T12:35:56.754Z,11.83
2019-04-27T12:38:22.385Z,11.00
2019-04-27T12:40:47.877Z,12.30
2019-04-27T12:43:13.234Z,11.73
2019-04-27T12:45:40.394Z,8.90
2019-04-27T12:48:05.606Z,9.75
2019-04-27T12:50:31.781Z,9.83
2019-04-27T12:53:00.718Z,8.63
2019-04-27T12:55:57.150Z,8.80
2019-04-27T12:58:41.506Z,7.55
2019-04-27T13:01:08.646Z,6.65
2019-04-27T13:03:34.017Z,8.65
2019-04-27T13:05:59.769Z,7.62
2019-04-27T13:08:26.047Z,8.78
2019-04-27T13:10:51.615Z,7.05
2019-04-27T13:13:16.975Z,8.63
2019-04-27T13:15:42.370Z,6.95
2019-04-27T13:18:07.731Z,7.72
2019-04-27T13:20:33.113Z,7.72
2019-04-27T13:22:58.596Z,5.55
2019-04-27T13:25:24.045Z,7.30
2019-04-27T13:27:51.109Z,8.13
2019-04-27T13:30:16.585Z,8.05
2019-04-27T13:32:41.928Z,8.23
2019-04-27T13:35:07.777Z,6.65
2019-04-27T13:37:43.200Z,8.18
2019-04-27T13:40:09.935Z,9.03
2019-04-27T13:42:38.601Z,9.25
2019-04-27T13:45:06.710Z,7.50
2019-04-27T13:47:50.654Z,6.20
2019-04-27T13:50:24.127Z,7.55
2019-04-27T13:52:50.545Z,6.87
2019-04-27T13:55:16.011Z,7.80
2019-04-27T13:57:50.083Z,7.55
2019-04-27T14:00:09.582Z,7.65
2019-04-27T14:02:34.970Z,7.58
2019-04-27T14:05:00.309Z,8.13
2019-04-27T14:07:26.700Z,6.70
2019-04-27T14:09:52.469Z,6.67
2019-04-27T14:12:22.365Z,5.92
2019-04-27T14:14:49.005Z,5.40
2019-04-27T14:17:14.607Z,5.33
2019-04-27T14:19:40.062Z,6.17
2019-04-27T14:22:05.551Z,7.72
2019-04-27T14:24:41.103Z,5.30
2019-04-27T14:27:07.805Z,3.90
2019-04-27T14:29:33.615Z,3.52
2019-04-27T14:31:59.043Z,3.80
2019-04-27T14:34:24.473Z,4.17
2019-04-27T14:36:49.808Z,3.52
2019-04-27T14:39:15.698Z,3.30
2019-04-27T14:41:41.074Z,6.28
2019-04-27T14:44:08.784Z,3.58
2019-04-27T14:46:33.600Z,6.08
2019-04-27T14:48:58.940Z,4.72
2019-04-27T14:51:24.298Z,4.75
2019-04-27T14:53:49.681Z,4.08
2019-04-27T14:56:15.026Z,4.53
2019-04-27T14:58:40.391Z,4.90
2019-04-27T15:01:05.873Z,5.25
2019-04-27T15:03:31.223Z,5.70
2019-04-27T15:05:57.629Z,3.77
2019-04-27T15:08:23.183Z,5.62
2019-04-27T15:10:48.565Z,5.33
2019-04-27T15:13:14.010Z,5.15
2019-04-27T15:15:39.841Z,5.55
2019-04-27T15:18:05.624Z,6.08
2019-04-27T15:20:39.199Z,6.10
2019-04-27T15:23:03.460Z,7.47
2019-04-27T15:25:35.026Z,7.20
2019-04-27T15:28:01.280Z,8.58
2019-04-27T15:30:44.427Z,6.55
2019-04-27T15:33:50.828Z,8.40
2019-04-27T15:36:22.678Z,3.58
2019-04-27T15:38:51.328Z,7.50
2019-04-27T15:41:24.347Z,5.12
2019-04-27T15:43:49.477Z,7.40
2019-04-27T15:46:14.868Z,6.58
2019-04-27T15:48:40.258Z,7.00
2019-04-27T15:51:14.644Z,8.58
2019-04-27T15:53:32.681Z,5.67
2019-04-27T15:56:00.849Z,5.50
2019-04-27T15:58:26.183Z,2.85
2019-04-27T16:00:56.572Z,4.10
2019-04-27T16:03:22.707Z,5.97
2019-04-27T16:05:45.697Z,4.05
2019-04-27T16:08:15.302Z,5.65
2019-04-27T16:10:40.261Z,5.72
2019-04-27T16:13:07.261Z,5.87
2019-04-27T16:15:32.232Z,4.42
2019-04-27T16:17:58.619Z,4.80
2019-04-27T16:20:30.211Z,4.85
2019-04-27T16:22:51.143Z,5.92
2019-04-27T16:25:18.577Z,6.23
2019-04-27T16:27:46.304Z,5.87
2019-04-27T16:30:17.936Z,6.12
2019-04-27T16:32:40.366Z,5.67
2019-04-27T16:35:09.665Z,3.53
2019-04-27T16:38:03.066Z,3.87
2019-04-27T16:40:30.113Z,4.60
2019-04-27T16:42:58.390Z,4.57
2019-04-27T16:45:27.135Z,5.30
2019-04-27T16:47:52.131Z,5.17
2019-04-27T16:50:19.696Z,7.77
2019-04-27T16:52:50.769Z,7.70
2019-04-27T16:55:12.030Z,6.17
2019-04-27T16:57:39.970Z,4.07
2019-04-27T17:00:08.256Z,6.30
2019-04-27T17:02:34.405Z,5.50
2019-04-27T17:04:59.960Z,7.00
2019-04-27T17:07:30.212Z,5.70
2019-04-27T17:09:52.302Z,7.03
2019-04-27T17:12:18.479Z,7.20
2019-04-27T17:15:10.634Z,5.97
2019-04-27T17:17:52.005Z,9.00
2019-04-27T17:20:21.124Z,5.90
2019-04-27T17:22:45.677Z,5.70
2019-04-27T17:25:15.341Z,7.10
2019-04-27T17:27:43.851Z,5.13
2019-04-27T17:30:09.607Z,7.37
2019-04-27T17:32:55.615Z,5.47
2019-04-27T17:35:21.101Z,5.27
2019-04-27T17:37:46.434Z,4.27
2019-04-27T17:40:15.165Z,5.40
2019-04-27T17:42:39.343Z,4.43
2019-04-27T17:45:05.385Z,6.33
2019-04-27T17:47:30.917Z,7.67
2019-04-27T17:49:56.245Z,6.07
2019-04-27T17:52:21.594Z,6.23
2019-04-27T17:54:48.461Z,7.47
2019-04-27T17:57:13.857Z,6.10
2019-04-27T17:59:39.220Z,8.80
2019-04-27T18:02:04.815Z,7.60
2019-04-27T18:04:32.889Z,4.37
2019-04-27T18:07:02.101Z,5.60
2019-04-27T18:09:25.533Z,7.00
2019-04-27T18:11:50.886Z,5.87
2019-04-27T18:14:16.322Z,6.03
2019-04-27T18:16:41.795Z,6.00
2019-04-27T18:19:26.074Z,4.93
2019-04-27T18:22:02.546Z,6.93
2019-04-27T18:24:33.899Z,6.20
2019-04-27T18:27:09.069Z,5.87
2019-04-27T18:29:34.570Z,6.57
2019-04-27T18:31:59.923Z,9.80
2019-04-27T18:34:25.302Z,6.13
2019-04-27T18:36:50.686Z,6.73
2019-04-27T18:39:16.060Z,10.70
2019-04-27T18:41:49.224Z,8.33
2019-04-27T18:44:11.246Z,6.37
2019-04-27T18:46:38.398Z,8.30
2019-04-27T18:49:12.338Z,6.50
2019-04-27T18:52:06.555Z,6.53
2019-04-27T18:54:33.157Z,7.27
2019-04-27T18:57:02.850Z,7.83
2019-04-27T18:59:28.814Z,6.23
2019-04-27T19:01:54.251Z,10.53
2019-04-27T19:04:19.593Z,7.90
2019-04-27T19:06:44.941Z,4.40
2019-04-27T19:09:10.627Z,5.03
2019-04-27T19:11:38.275Z,5.27
2019-04-27T19:14:04.248Z,5.47
2019-04-27T19:16:29.657Z,5.20
2019-04-27T19:18:55.014Z,2.60
2019-04-27T19:21:20.375Z,3.50
2019-04-27T19:23:45.761Z,3.23
2019-04-27T19:26:23.061Z,3.87
2019-04-27T19:29:13.650Z,4.80
2019-04-27T19:31:43.514Z,2.57
2019-04-27T19:34:08.902Z,3.07
2019-04-27T19:36:34.294Z,2.87
2019-04-27T19:38:59.650Z,2.47
2019-04-27T19:41:25.013Z,2.80
2019-04-27T19:43:50.502Z,4.87
2019-04-27T19:46:15.839Z,5.80
2019-04-27T19:48:41.211Z,1.77
2019-04-27T19:51:06.582Z,2.30
2019-04-27T19:53:31.926Z,2.03
2019-04-27T19:56:03.064Z,3.43
2019-04-27T19:58:29.990Z,2.30
2019-04-27T20:01:11.491Z,2.00
2019-04-27T20:03:34.893Z,8.27
2019-04-27T20:06:00.255Z,5.97
2019-04-27T20:08:29.744Z,7.93
2019-04-27T20:10:55.162Z,5.70
2019-04-27T20:13:21.991Z,3.37
2019-04-27T20:15:47.540Z,4.13
2019-04-27T20:18:12.890Z,2.70
2019-04-27T20:20:39.302Z,1.53
2019-04-27T20:23:04.778Z,6.87
2019-04-27T20:25:31.320Z,2.60
2019-04-27T20:27:56.862Z,3.77
2019-04-27T20:30:22.205Z,3.17
2019-04-27T20:32:47.722Z,2.93
2019-04-27T20:35:13.239Z,2.33
2019-04-27T20:37:38.652Z,3.50
2019-04-27T20:40:04.078Z,4.30
2019-04-27T20:42:31.474Z,5.20
2019-04-27T20:44:56.869Z,3.40
2019-04-27T20:47:22.208Z,5.83
2019-04-27T20:49:47.586Z,3.73
2019-04-27T20:52:34.629Z,4.00
2019-04-27T20:55:01.447Z,5.17
2019-04-27T20:57:27.058Z,2.97
2019-04-27T20:59:52.542Z,2.97
2019-04-27T21:02:42.174Z,2.93
2019-04-27T21:05:31.016Z,3.03
2019-04-27T21:08:01.430Z,5.63
2019-04-27T21:10:26.826Z,2.67
2019-04-27T21:12:52.247Z,3.00
2019-04-27T21:15:17.600Z,2.00
2019-04-27T21:17:43.003Z,2.50
2019-04-27T21:20:08.454Z,5.87
2019-04-27T21:22:33.810Z,4.57
2019-04-27T21:24:59.193Z,5.40
2019-04-27T21:27:25.037Z,5.57
2019-04-27T21:29:51.595Z,5.03
2019-04-27T21:32:17.523Z,8.90
2019-04-27T21:34:42.882Z,3.97
2019-04-27T21:37:08.274Z,3.80
2019-04-27T21:39:33.638Z,3.30
2019-04-27T21:42:00.869Z,3.57
2019-04-27T21:44:26.007Z,3.13
2019-04-27T21:46:51.915Z,4.27
2019-04-27T21:49:19.037Z,2.50
2019-04-27T21:52:02.190Z,2.83
2019-04-27T21:54:28.098Z,4.83
2019-04-27T21:56:53.435Z,3.70
2019-04-27T21:59:18.814Z,5.40
2019-04-27T22:01:45.185Z,3.73
2019-04-27T22:04:11.820Z,4.90
2019-04-27T22:06:37.250Z,4.03
2019-04-27T22:09:02.658Z,3.47
2019-04-27T22:11:29.622Z,4.20
2019-04-27T22:13:55.052Z,3.60
2019-04-27T22:16:21.322Z,3.20
2019-04-27T22:18:46.782Z,3.73
2019-04-27T22:21:12.220Z,4.73
2019-04-27T22:24:00.997Z,3.90
2019-04-27T22:26:26.584Z,4.03
2019-04-27T22:28:52.218Z,5.83
2019-04-27T22:31:17.720Z,4.03
2019-04-27T22:33:43.108Z,4.17
2019-04-27T22:36:08.456Z,3.93
2019-04-27T22:38:33.918Z,4.83
2019-04-27T22:41:18.210Z,3.53
2019-04-27T22:43:56.153Z,4.23
2019-04-27T22:46:22.621Z,4.80
2019-04-27T22:48:49.153Z,3.53
2019-04-27T22:51:14.549Z,3.63
2019-04-27T22:53:41.082Z,3.63
2019-04-27T22:56:18.192Z,4.20
2019-04-27T22:58:57.491Z,3.97
2019-04-27T23:01:21.140Z,4.80
2019-04-27T23:03:47.087Z,5.40
2019-04-27T23:06:12.426Z,3.00
2019-04-27T23:08:37.838Z,2.53
2019-04-27T23:11:03.494Z,3.97
2019-04-27T23:13:28.869Z,3.03
2019-04-27T23:15:56.179Z,3.47
2019-04-27T23:18:22.655Z,4.43
2019-04-27T23:20:48.046Z,5.20
2019-04-27T23:23:13.397Z,3.70
2019-04-27T23:25:38.789Z,3.57
2019-04-27T23:28:04.174Z,3.17
2019-04-27T23:30:51.483Z,4.53
2019-04-27T23:33:16.896Z,4.07
2019-04-27T23:35:42.264Z,4.13
2019-04-27T23:38:15.608Z,8.13
2019-04-27T23:40:34.735Z,4.53
2019-04-27T23:43:01.568Z,4.37
2019-04-27T23:45:27.162Z,5.23
2019-04-27T23:47:52.522Z,3.50
2019-04-27T23:50:17.893Z,5.23
2019-04-27T23:53:17.342Z,4.70
2019-04-27T23:55:42.694Z,4.43
2019-04-27T23:58:08.102Z,3.97
